sensor_id;sensor_type;location;lat;lon;timestamp;P1;durP1;ratioP1;P2;durP2;ratioP2
4857;SDS011;58975;51.978;8.472;2023-08-31T00:03:48;13.50;;;8.00;;
4857;SDS011;58975;51.978;8.472;2023-08-31T00:08:45;15.10;;;9.45;;
4857;SDS011;58975;51.978;8.472;2023-08-31T00:13:42;14.45;;;8.70;;
4857;SDS011;58975;51.978;8.472;2023-08-31T00:18:38;14.88;;;7.57;;
4857;SDS011;58975;51.978;8.472;2023-08-31T00:23:35;8.38;;;6.68;;
4857;SDS011;58975;51.978;8.472;2023-08-31T00:28:33;15.25;;;6.97;;
4857;SDS011;58975;51.978;8.472;2023-08-31T00:33:29;13.20;;;6.90;;
4857;SDS011;58975;51.978;8.472;2023-08-31T00:38:27;9.52;;;5.13;;
4857;SDS011;58975;51.978;8.472;2023-08-31T00:43:24;11.77;;;6.73;;
4857;SDS011;58975;51.978;8.472;2023-08-31T00:48:20;10.05;;;6.63;;
4857;SDS011;58975;51.978;8.472;2023-08-31T00:53:17;14.07;;;6.53;;
4857;SDS011;58975;51.978;8.472;2023-08-31T00:58:14;17.58;;;6.80;;
4857;SDS011;58975;51.978;8.472;2023-08-31T01:03:24;12.85;;;7.18;;
4857;SDS011;58975;51.978;8.472;2023-08-31T01:08:26;24.67;;;7.35;;
4857;SDS011;58975;51.978;8.472;2023-08-31T01:13:31;12.25;;;6.72;;
4857;SDS011;58975;51.978;8.472;2023-08-31T01:18:30;12.60;;;7.25;;
4857;SDS011;58975;51.978;8.472;2023-08-31T01:23:31;20.10;;;7.53;;
4857;SDS011;58975;51.978;8.472;2023-08-31T01:28:52;21.23;;;7.55;;
4857;SDS011;58975;51.978;8.472;2023-08-31T01:33:49;15.65;;;7.88;;
4857;SDS011;58975;51.978;8.472;2023-08-31T01:38:47;14.88;;;6.95;;
4857;SDS011;58975;51.978;8.472;2023-08-31T01:43:47;18.15;;;7.95;;
4857;SDS011;58975;51.978;8.472;2023-08-31T01:48:45;15.63;;;7.13;;
4857;SDS011;58975;51.978;8.472;2023-08-31T01:53:41;18.45;;;8.30;;
4857;SDS011;58975;51.978;8.472;2023-08-31T01:58:38;11.57;;;8.05;;
4857;SDS011;58975;51.978;8.472;2023-08-31T02:03:34;20.98;;;8.38;;
4857;SDS011;58975;51.978;8.472;2023-08-31T02:08:30;14.35;;;8.65;;
4857;SDS011;58975;51.978;8.472;2023-08-31T02:13:29;11.80;;;5.67;;
4857;SDS011;58975;51.978;8.472;2023-08-31T02:23:22;14.48;;;8.07;;
4857;SDS011;58975;51.978;8.472;2023-08-31T02:28:19;14.23;;;7.07;;
4857;SDS011;58975;51.978;8.472;2023-08-31T02:33:15;12.32;;;7.63;;
4857;SDS011;58975;51.978;8.472;2023-08-31T02:38:12;14.65;;;8.75;;
4857;SDS011;58975;51.978;8.472;2023-08-31T02:43:08;13.32;;;9.27;;
4857;SDS011;58975;51.978;8.472;2023-08-31T02:48:06;16.42;;;9.13;;
4857;SDS011;58975;51.978;8.472;2023-08-31T02:53:03;17.25;;;10.13;;
4857;SDS011;58975;51.978;8.472;2023-08-31T02:58:00;15.30;;;9.77;;
4857;SDS011;58975;51.978;8.472;2023-08-31T03:02:56;18.00;;;10.88;;
4857;SDS011;58975;51.978;8.472;2023-08-31T03:07:52;17.90;;;10.48;;
4857;SDS011;58975;51.978;8.472;2023-08-31T03:12:49;17.60;;;10.77;;
4857;SDS011;58975;51.978;8.472;2023-08-31T03:17:45;17.55;;;11.27;;
4857;SDS011;58975;51.978;8.472;2023-08-31T03:22:42;21.67;;;10.68;;
4857;SDS011;58975;51.978;8.472;2023-08-31T03:27:38;28.15;;;11.38;;
4857;SDS011;58975;51.978;8.472;2023-08-31T03:32:35;17.65;;;9.50;;
4857;SDS011;58975;51.978;8.472;2023-08-31T03:37:31;15.30;;;9.85;;
4857;SDS011;58975;51.978;8.472;2023-08-31T03:42:28;13.07;;;9.68;;
4857;SDS011;58975;51.978;8.472;2023-08-31T03:47:24;13.60;;;9.35;;
4857;SDS011;58975;51.978;8.472;2023-08-31T03:52:21;13.75;;;8.57;;
4857;SDS011;58975;51.978;8.472;2023-08-31T03:57:19;18.02;;;8.82;;
4857;SDS011;58975;51.978;8.472;2023-08-31T04:02:16;12.90;;;8.57;;
4857;SDS011;58975;51.978;8.472;2023-08-31T04:07:12;14.60;;;9.02;;
4857;SDS011;58975;51.978;8.472;2023-08-31T04:12:09;14.80;;;9.20;;
4857;SDS011;58975;51.978;8.472;2023-08-31T04:17:05;18.67;;;9.70;;
4857;SDS011;58975;51.978;8.472;2023-08-31T04:22:02;16.75;;;9.50;;
4857;SDS011;58975;51.978;8.472;2023-08-31T04:27:00;13.18;;;8.88;;
4857;SDS011;58975;51.978;8.472;2023-08-31T04:31:57;26.20;;;11.02;;
4857;SDS011;58975;51.978;8.472;2023-08-31T04:36:55;20.30;;;10.27;;
4857;SDS011;58975;51.978;8.472;2023-08-31T04:41:51;19.48;;;9.70;;
4857;SDS011;58975;51.978;8.472;2023-08-31T04:46:47;18.98;;;10.82;;
4857;SDS011;58975;51.978;8.472;2023-08-31T04:51:44;18.88;;;10.05;;
4857;SDS011;58975;51.978;8.472;2023-08-31T04:56:42;24.38;;;10.52;;
4857;SDS011;58975;51.978;8.472;2023-08-31T05:01:38;19.92;;;12.18;;
4857;SDS011;58975;51.978;8.472;2023-08-31T05:06:35;26.40;;;13.90;;
4857;SDS011;58975;51.978;8.472;2023-08-31T05:11:31;18.70;;;11.65;;
4857;SDS011;58975;51.978;8.472;2023-08-31T05:16:28;19.70;;;12.40;;
4857;SDS011;58975;51.978;8.472;2023-08-31T05:21:24;25.02;;;13.00;;
4857;SDS011;58975;51.978;8.472;2023-08-31T05:26:21;24.70;;;13.38;;
4857;SDS011;58975;51.978;8.472;2023-08-31T05:31:17;25.40;;;15.63;;
4857;SDS011;58975;51.978;8.472;2023-08-31T05:36:14;32.88;;;15.25;;
4857;SDS011;58975;51.978;8.472;2023-08-31T05:41:10;31.80;;;16.67;;
4857;SDS011;58975;51.978;8.472;2023-08-31T05:46:07;29.15;;;15.35;;
4857;SDS011;58975;51.978;8.472;2023-08-31T05:51:04;35.03;;;18.43;;
4857;SDS011;58975;51.978;8.472;2023-08-31T05:56:01;29.00;;;16.02;;
4857;SDS011;58975;51.978;8.472;2023-08-31T06:01:02;36.05;;;16.85;;
4857;SDS011;58975;51.978;8.472;2023-08-31T06:05:59;28.08;;;16.02;;
4857;SDS011;58975;51.978;8.472;2023-08-31T06:10:56;39.40;;;17.95;;
4857;SDS011;58975;51.978;8.472;2023-08-31T06:15:52;37.63;;;16.75;;
4857;SDS011;58975;51.978;8.472;2023-08-31T06:20:49;39.60;;;17.60;;
4857;SDS011;58975;51.978;8.472;2023-08-31T06:25:45;33.20;;;16.13;;
4857;SDS011;58975;51.978;8.472;2023-08-31T06:30:42;39.63;;;18.95;;
4857;SDS011;58975;51.978;8.472;2023-08-31T06:35:45;28.88;;;15.10;;
4857;SDS011;58975;51.978;8.472;2023-08-31T06:40:45;37.10;;;15.30;;
4857;SDS011;58975;51.978;8.472;2023-08-31T06:45:42;25.35;;;12.38;;
4857;SDS011;58975;51.978;8.472;2023-08-31T06:50:39;19.25;;;12.13;;
4857;SDS011;58975;51.978;8.472;2023-08-31T06:55:35;22.25;;;13.43;;
4857;SDS011;58975;51.978;8.472;2023-08-31T07:00:32;23.23;;;13.32;;
4857;SDS011;58975;51.978;8.472;2023-08-31T07:05:32;23.00;;;13.60;;
4857;SDS011;58975;51.978;8.472;2023-08-31T07:10:31;17.92;;;12.32;;
4857;SDS011;58975;51.978;8.472;2023-08-31T07:15:27;21.50;;;12.10;;
4857;SDS011;58975;51.978;8.472;2023-08-31T07:20:26;19.10;;;12.38;;
4857;SDS011;58975;51.978;8.472;2023-08-31T07:25:23;19.77;;;11.93;;
4857;SDS011;58975;51.978;8.472;2023-08-31T07:30:19;23.85;;;10.90;;
4857;SDS011;58975;51.978;8.472;2023-08-31T07:35:16;15.27;;;11.25;;
4857;SDS011;58975;51.978;8.472;2023-08-31T07:40:12;18.80;;;11.48;;
4857;SDS011;58975;51.978;8.472;2023-08-31T07:45:09;23.25;;;10.57;;
4857;SDS011;58975;51.978;8.472;2023-08-31T07:50:06;15.45;;;11.18;;
4857;SDS011;58975;51.978;8.472;2023-08-31T07:55:03;20.35;;;12.15;;
4857;SDS011;58975;51.978;8.472;2023-08-31T08:00:00;18.37;;;11.83;;
4857;SDS011;58975;51.978;8.472;2023-08-31T08:05:00;17.63;;;11.40;;
4857;SDS011;58975;51.978;8.472;2023-08-31T08:09:56;23.92;;;12.90;;
4857;SDS011;58975;51.978;8.472;2023-08-31T08:14:53;20.40;;;12.43;;
4857;SDS011;58975;51.978;8.472;2023-08-31T08:19:49;18.92;;;13.82;;
4857;SDS011;58975;51.978;8.472;2023-08-31T08:24:46;19.45;;;14.20;;
4857;SDS011;58975;51.978;8.472;2023-08-31T08:29:42;22.10;;;14.05;;
4857;SDS011;58975;51.978;8.472;2023-08-31T08:34:39;17.35;;;13.75;;
4857;SDS011;58975;51.978;8.472;2023-08-31T08:39:35;18.00;;;14.00;;
4857;SDS011;58975;51.978;8.472;2023-08-31T08:44:32;18.40;;;13.52;;
4857;SDS011;58975;51.978;8.472;2023-08-31T08:49:32;17.02;;;12.27;;
4857;SDS011;58975;51.978;8.472;2023-08-31T08:54:31;17.80;;;12.45;;
4857;SDS011;58975;51.978;8.472;2023-08-31T08:59:29;18.27;;;12.57;;
4857;SDS011;58975;51.978;8.472;2023-08-31T09:09:25;15.93;;;11.52;;
4857;SDS011;58975;51.978;8.472;2023-08-31T09:14:22;14.52;;;10.60;;
4857;SDS011;58975;51.978;8.472;2023-08-31T09:19:22;14.10;;;8.90;;
4857;SDS011;58975;51.978;8.472;2023-08-31T09:24:20;10.95;;;8.07;;
4857;SDS011;58975;51.978;8.472;2023-08-31T09:29:18;9.63;;;6.90;;
4857;SDS011;58975;51.978;8.472;2023-08-31T09:34:15;11.73;;;6.05;;
4857;SDS011;58975;51.978;8.472;2023-08-31T09:39:13;8.50;;;5.30;;
4857;SDS011;58975;51.978;8.472;2023-08-31T09:44:17;10.90;;;6.07;;
4857;SDS011;58975;51.978;8.472;2023-08-31T09:49:15;8.40;;;4.80;;
4857;SDS011;58975;51.978;8.472;2023-08-31T09:59:10;8.70;;;4.33;;
4857;SDS011;58975;51.978;8.472;2023-08-31T10:04:08;10.82;;;5.75;;
4857;SDS011;58975;51.978;8.472;2023-08-31T10:09:05;6.22;;;3.80;;
4857;SDS011;58975;51.978;8.472;2023-08-31T10:14:02;7.60;;;3.37;;
4857;SDS011;58975;51.978;8.472;2023-08-31T10:19:00;5.30;;;3.53;;
4857;SDS011;58975;51.978;8.472;2023-08-31T10:23:56;5.78;;;3.88;;
4857;SDS011;58975;51.978;8.472;2023-08-31T10:28:53;5.88;;;3.05;;
4857;SDS011;58975;51.978;8.472;2023-08-31T10:43:56;8.18;;;2.38;;
4857;SDS011;58975;51.978;8.472;2023-08-31T10:54:11;5.30;;;1.90;;
4857;SDS011;58975;51.978;8.472;2023-08-31T10:59:11;2.67;;;1.30;;
4857;SDS011;58975;51.978;8.472;2023-08-31T11:04:10;4.50;;;1.45;;
4857;SDS011;58975;51.978;8.472;2023-08-31T11:09:13;3.83;;;1.30;;
4857;SDS011;58975;51.978;8.472;2023-08-31T11:19:12;2.47;;;1.90;;
4857;SDS011;58975;51.978;8.472;2023-08-31T11:24:09;1.95;;;1.10;;
4857;SDS011;58975;51.978;8.472;2023-08-31T11:29:06;5.32;;;1.38;;
4857;SDS011;58975;51.978;8.472;2023-08-31T11:34:04;3.72;;;1.85;;
4857;SDS011;58975;51.978;8.472;2023-08-31T11:39:01;7.73;;;1.13;;
4857;SDS011;58975;51.978;8.472;2023-08-31T11:44:00;0.75;;;0.70;;
4857;SDS011;58975;51.978;8.472;2023-08-31T11:48:56;3.83;;;1.08;;
4857;SDS011;58975;51.978;8.472;2023-08-31T11:53:55;2.58;;;0.75;;
4857;SDS011;58975;51.978;8.472;2023-08-31T11:58:55;5.65;;;0.70;;
4857;SDS011;58975;51.978;8.472;2023-08-31T12:03:57;1.85;;;0.75;;
4857;SDS011;58975;51.978;8.472;2023-08-31T12:08:54;0.95;;;0.32;;
4857;SDS011;58975;51.978;8.472;2023-08-31T12:13:50;1.30;;;0.40;;
4857;SDS011;58975;51.978;8.472;2023-08-31T12:18:47;3.97;;;1.25;;
4857;SDS011;58975;51.978;8.472;2023-08-31T12:23:43;1.55;;;0.40;;
4857;SDS011;58975;51.978;8.472;2023-08-31T12:28:40;1.77;;;0.80;;
4857;SDS011;58975;51.978;8.472;2023-08-31T12:33:37;4.00;;;0.50;;
4857;SDS011;58975;51.978;8.472;2023-08-31T12:38:33;2.22;;;0.60;;
4857;SDS011;58975;51.978;8.472;2023-08-31T12:43:30;3.53;;;1.23;;
4857;SDS011;58975;51.978;8.472;2023-08-31T12:48:27;1.85;;;0.65;;
4857;SDS011;58975;51.978;8.472;2023-08-31T12:53:24;6.50;;;2.03;;
4857;SDS011;58975;51.978;8.472;2023-08-31T12:58:20;2.55;;;0.90;;
4857;SDS011;58975;51.978;8.472;2023-08-31T13:08:16;4.27;;;1.23;;
4857;SDS011;58975;51.978;8.472;2023-08-31T13:13:12;2.10;;;0.70;;
4857;SDS011;58975;51.978;8.472;2023-08-31T13:18:09;2.40;;;0.83;;
4857;SDS011;58975;51.978;8.472;2023-08-31T13:23:07;4.10;;;0.90;;
4857;SDS011;58975;51.978;8.472;2023-08-31T13:28:03;4.93;;;0.80;;
4857;SDS011;58975;51.978;8.472;2023-08-31T13:33:00;3.28;;;1.10;;
4857;SDS011;58975;51.978;8.472;2023-08-31T13:37:57;4.03;;;1.60;;
4857;SDS011;58975;51.978;8.472;2023-08-31T13:42:57;9.00;;;1.60;;
4857;SDS011;58975;51.978;8.472;2023-08-31T13:47:59;6.15;;;1.92;;
4857;SDS011;58975;51.978;8.472;2023-08-31T13:52:56;5.53;;;1.60;;
4857;SDS011;58975;51.978;8.472;2023-08-31T13:57:53;6.30;;;1.52;;
4857;SDS011;58975;51.978;8.472;2023-08-31T14:02:50;4.43;;;1.52;;
4857;SDS011;58975;51.978;8.472;2023-08-31T14:07:47;1.38;;;1.10;;
4857;SDS011;58975;51.978;8.472;2023-08-31T14:12:45;3.20;;;1.35;;
4857;SDS011;58975;51.978;8.472;2023-08-31T14:17:44;3.33;;;1.17;;
4857;SDS011;58975;51.978;8.472;2023-08-31T14:22:41;3.75;;;1.15;;
4857;SDS011;58975;51.978;8.472;2023-08-31T14:27:40;1.98;;;1.20;;
4857;SDS011;58975;51.978;8.472;2023-08-31T14:32:37;5.75;;;2.00;;
4857;SDS011;58975;51.978;8.472;2023-08-31T14:37:33;2.15;;;0.70;;
4857;SDS011;58975;51.978;8.472;2023-08-31T14:42:30;0.68;;;0.68;;
4857;SDS011;58975;51.978;8.472;2023-08-31T14:47:26;1.60;;;0.73;;
4857;SDS011;58975;51.978;8.472;2023-08-31T14:52:23;1.45;;;1.02;;
4857;SDS011;58975;51.978;8.472;2023-08-31T14:57:19;0.88;;;0.88;;
4857;SDS011;58975;51.978;8.472;2023-08-31T15:02:16;2.67;;;1.80;;
4857;SDS011;58975;51.978;8.472;2023-08-31T15:07:17;1.88;;;0.85;;
4857;SDS011;58975;51.978;8.472;2023-08-31T15:12:13;1.92;;;1.40;;
4857;SDS011;58975;51.978;8.472;2023-08-31T15:17:10;2.92;;;1.60;;
4857;SDS011;58975;51.978;8.472;2023-08-31T15:22:09;4.80;;;1.77;;
4857;SDS011;58975;51.978;8.472;2023-08-31T15:27:05;4.53;;;1.95;;
4857;SDS011;58975;51.978;8.472;2023-08-31T15:32:02;4.93;;;1.73;;
4857;SDS011;58975;51.978;8.472;2023-08-31T15:36:59;1.65;;;1.48;;
4857;SDS011;58975;51.978;8.472;2023-08-31T15:41:55;4.40;;;1.77;;
4857;SDS011;58975;51.978;8.472;2023-08-31T15:46:52;4.43;;;1.90;;
4857;SDS011;58975;51.978;8.472;2023-08-31T15:51:48;3.78;;;1.60;;
4857;SDS011;58975;51.978;8.472;2023-08-31T15:56:45;3.20;;;1.58;;
4857;SDS011;58975;51.978;8.472;2023-08-31T16:01:41;3.28;;;1.83;;
4857;SDS011;58975;51.978;8.472;2023-08-31T16:06:39;2.10;;;1.40;;
4857;SDS011;58975;51.978;8.472;2023-08-31T16:11:37;3.83;;;2.10;;
4857;SDS011;58975;51.978;8.472;2023-08-31T16:16:34;2.47;;;1.80;;
4857;SDS011;58975;51.978;8.472;2023-08-31T16:21:31;2.65;;;1.98;;
4857;SDS011;58975;51.978;8.472;2023-08-31T16:26:27;3.03;;;2.20;;
4857;SDS011;58975;51.978;8.472;2023-08-31T16:31:24;4.03;;;2.70;;
4857;SDS011;58975;51.978;8.472;2023-08-31T16:36:20;3.22;;;2.40;;
4857;SDS011;58975;51.978;8.472;2023-08-31T16:41:17;2.60;;;1.90;;
4857;SDS011;58975;51.978;8.472;2023-08-31T16:46:13;2.75;;;2.13;;
4857;SDS011;58975;51.978;8.472;2023-08-31T16:51:10;2.65;;;2.15;;
4857;SDS011;58975;51.978;8.472;2023-08-31T16:56:06;5.68;;;2.50;;
4857;SDS011;58975;51.978;8.472;2023-08-31T17:01:03;6.88;;;2.35;;
4857;SDS011;58975;51.978;8.472;2023-08-31T17:06:00;2.35;;;1.90;;
4857;SDS011;58975;51.978;8.472;2023-08-31T17:10:57;3.20;;;2.38;;
4857;SDS011;58975;51.978;8.472;2023-08-31T17:15:53;4.80;;;3.45;;
4857;SDS011;58975;51.978;8.472;2023-08-31T17:20:50;4.90;;;2.65;;
4857;SDS011;58975;51.978;8.472;2023-08-31T17:25:46;3.50;;;2.90;;
4857;SDS011;58975;51.978;8.472;2023-08-31T17:30:43;5.10;;;3.22;;
4857;SDS011;58975;51.978;8.472;2023-08-31T17:35:40;3.63;;;2.42;;
4857;SDS011;58975;51.978;8.472;2023-08-31T17:40:36;8.98;;;2.78;;
4857;SDS011;58975;51.978;8.472;2023-08-31T17:45:34;3.95;;;2.10;;
4857;SDS011;58975;51.978;8.472;2023-08-31T17:50:31;2.42;;;1.88;;
4857;SDS011;58975;51.978;8.472;2023-08-31T17:55:29;4.53;;;2.40;;
4857;SDS011;58975;51.978;8.472;2023-08-31T18:00:27;5.22;;;2.45;;
4857;SDS011;58975;51.978;8.472;2023-08-31T18:05:24;5.57;;;1.93;;
4857;SDS011;58975;51.978;8.472;2023-08-31T18:10:20;4.10;;;2.45;;
4857;SDS011;58975;51.978;8.472;2023-08-31T18:15:20;4.03;;;2.58;;
4857;SDS011;58975;51.978;8.472;2023-08-31T18:20:17;4.32;;;2.42;;
4857;SDS011;58975;51.978;8.472;2023-08-31T18:25:13;9.73;;;2.70;;
4857;SDS011;58975;51.978;8.472;2023-08-31T18:30:10;5.13;;;3.15;;
4857;SDS011;58975;51.978;8.472;2023-08-31T18:35:07;7.47;;;3.10;;
4857;SDS011;58975;51.978;8.472;2023-08-31T18:40:04;8.93;;;3.47;;
4857;SDS011;58975;51.978;8.472;2023-08-31T18:45:01;5.68;;;3.30;;
4857;SDS011;58975;51.978;8.472;2023-08-31T18:50:00;7.57;;;4.10;;
4857;SDS011;58975;51.978;8.472;2023-08-31T18:54:57;9.13;;;4.28;;
4857;SDS011;58975;51.978;8.472;2023-08-31T18:59:53;8.50;;;4.90;;
4857;SDS011;58975;51.978;8.472;2023-08-31T19:04:50;6.10;;;3.92;;
4857;SDS011;58975;51.978;8.472;2023-08-31T19:09:51;9.80;;;5.25;;
4857;SDS011;58975;51.978;8.472;2023-08-31T19:15:03;8.27;;;5.00;;
4857;SDS011;58975;51.978;8.472;2023-08-31T19:20:00;8.13;;;4.03;;
4857;SDS011;58975;51.978;8.472;2023-08-31T19:24:57;8.10;;;4.53;;
4857;SDS011;58975;51.978;8.472;2023-08-31T19:29:54;5.72;;;4.43;;
4857;SDS011;58975;51.978;8.472;2023-08-31T19:34:50;10.70;;;4.63;;
4857;SDS011;58975;51.978;8.472;2023-08-31T19:39:46;6.45;;;4.45;;
4857;SDS011;58975;51.978;8.472;2023-08-31T19:44:43;5.47;;;4.60;;
4857;SDS011;58975;51.978;8.472;2023-08-31T19:49:40;8.15;;;4.38;;
4857;SDS011;58975;51.978;8.472;2023-08-31T19:54:36;5.72;;;4.93;;
4857;SDS011;58975;51.978;8.472;2023-08-31T19:59:33;9.77;;;5.07;;
4857;SDS011;58975;51.978;8.472;2023-08-31T20:04:30;7.68;;;5.47;;
4857;SDS011;58975;51.978;8.472;2023-08-31T20:09:26;6.10;;;5.28;;
4857;SDS011;58975;51.978;8.472;2023-08-31T20:14:23;7.03;;;6.07;;
4857;SDS011;58975;51.978;8.472;2023-08-31T20:19:19;10.23;;;5.85;;
4857;SDS011;58975;51.978;8.472;2023-08-31T20:24:16;5.35;;;4.88;;
4857;SDS011;58975;51.978;8.472;2023-08-31T20:29:13;6.20;;;4.90;;
4857;SDS011;58975;51.978;8.472;2023-08-31T20:34:13;6.88;;;5.95;;
4857;SDS011;58975;51.978;8.472;2023-08-31T20:39:10;9.85;;;5.10;;
4857;SDS011;58975;51.978;8.472;2023-08-31T20:44:08;6.55;;;5.63;;
4857;SDS011;58975;51.978;8.472;2023-08-31T20:49:05;8.25;;;6.90;;
4857;SDS011;58975;51.978;8.472;2023-08-31T20:54:01;13.25;;;7.15;;
4857;SDS011;58975;51.978;8.472;2023-08-31T20:59:00;8.25;;;6.80;;
4857;SDS011;58975;51.978;8.472;2023-08-31T21:03:57;7.72;;;6.32;;
4857;SDS011;58975;51.978;8.472;2023-08-31T21:08:55;14.95;;;9.60;;
4857;SDS011;58975;51.978;8.472;2023-08-31T21:13:51;9.25;;;8.27;;
4857;SDS011;58975;51.978;8.472;2023-08-31T21:18:49;9.93;;;8.88;;
4857;SDS011;58975;51.978;8.472;2023-08-31T21:23:46;14.75;;;9.90;;
4857;SDS011;58975;51.978;8.472;2023-08-31T21:28:43;10.70;;;8.82;;
4857;SDS011;58975;51.978;8.472;2023-08-31T21:33:39;11.73;;;9.07;;
4857;SDS011;58975;51.978;8.472;2023-08-31T21:38:36;12.18;;;9.85;;
4857;SDS011;58975;51.978;8.472;2023-08-31T21:43:33;13.93;;;10.38;;
4857;SDS011;58975;51.978;8.472;2023-08-31T21:48:29;11.73;;;9.15;;
4857;SDS011;58975;51.978;8.472;2023-08-31T21:53:27;14.85;;;9.13;;
4857;SDS011;58975;51.978;8.472;2023-08-31T21:58:23;10.85;;;9.25;;
4857;SDS011;58975;51.978;8.472;2023-08-31T22:03:20;12.98;;;9.70;;
4857;SDS011;58975;51.978;8.472;2023-08-31T22:08:16;13.23;;;8.77;;
4857;SDS011;58975;51.978;8.472;2023-08-31T22:13:13;18.55;;;8.88;;
4857;SDS011;58975;51.978;8.472;2023-08-31T22:18:09;17.15;;;9.57;;
4857;SDS011;58975;51.978;8.472;2023-08-31T22:23:08;13.20;;;10.00;;
4857;SDS011;58975;51.978;8.472;2023-08-31T22:28:05;14.52;;;10.18;;
4857;SDS011;58975;51.978;8.472;2023-08-31T22:33:01;10.57;;;9.05;;
4857;SDS011;58975;51.978;8.472;2023-08-31T22:37:58;16.25;;;10.07;;
4857;SDS011;58975;51.978;8.472;2023-08-31T22:42:54;13.45;;;9.57;;
4857;SDS011;58975;51.978;8.472;2023-08-31T22:47:51;12.10;;;10.13;;
4857;SDS011;58975;51.978;8.472;2023-08-31T22:52:47;14.57;;;9.05;;
4857;SDS011;58975;51.978;8.472;2023-08-31T22:57:44;16.70;;;9.57;;
4857;SDS011;58975;51.978;8.472;2023-08-31T23:02:41;11.10;;;8.98;;
4857;SDS011;58975;51.978;8.472;2023-08-31T23:07:37;11.18;;;8.85;;
4857;SDS011;58975;51.978;8.472;2023-08-31T23:12:34;11.73;;;8.15;;
4857;SDS011;58975;51.978;8.472;2023-08-31T23:17:30;13.07;;;10.48;;
4857;SDS011;58975;51.978;8.472;2023-08-31T23:22:27;11.63;;;9.00;;
4857;SDS011;58975;51.978;8.472;2023-08-31T23:27:23;10.73;;;8.50;;
4857;SDS011;58975;51.978;8.472;2023-08-31T23:32:25;12.90;;;9.75;;
4857;SDS011;58975;51.978;8.472;2023-08-31T23:37:22;10.60;;;8.25;;
4857;SDS011;58975;51.978;8.472;2023-08-31T23:42:19;10.13;;;8.27;;
4857;SDS011;58975;51.978;8.472;2023-08-31T23:47:16;10.55;;;8.15;;
4857;SDS011;58975;51.978;8.472;2023-08-31T23:52:12;12.20;;;8.82;;
4857;SDS011;58975;51.978;8.472;2023-08-31T23:57:09;10.93;;;8.38;;
